createdAt,value
2019-05-29T00:00:45.188Z,99.90
2019-05-29T00:03:12.748Z,99.90
2019-05-29T00:05:40.299Z,99.90
2019-05-29T00:08:08.230Z,99.90
2019-05-29T00:10:36.227Z,99.90
2019-05-29T00:13:03.783Z,99.90
2019-05-29T00:15:31.350Z,99.90
2019-05-29T00:17:58.908Z,99.90
2019-05-29T00:20:26.463Z,99.90
2019-05-29T00:22:54.016Z,99.90
2019-05-29T00:25:21.570Z,99.90
2019-05-29T00:27:49.123Z,99.90
2019-05-29T00:30:17.033Z,99.90
2019-05-29T00:32:44.296Z,99.90
2019-05-29T00:35:14.317Z,99.90
2019-05-29T00:37:41.132Z,99.90
2019-05-29T00:40:09.017Z,99.90
2019-05-29T00:42:36.478Z,99.90
2019-05-29T00:45:07.297Z,99.90
2019-05-29T00:47:36.207Z,99.90
2019-05-29T00:50:04.615Z,99.90
2019-05-29T00:52:32.174Z,99.90
2019-05-29T00:54:59.723Z,99.90
2019-05-29T00:57:27.279Z,99.90
2019-05-29T00:59:54.834Z,99.90
2019-05-29T01:02:22.387Z,99.90
2019-05-29T01:04:49.940Z,99.90
2019-05-29T01:07:18.357Z,99.90
2019-05-29T01:09:46.851Z,99.90
2019-05-29T01:12:15.400Z,99.90
2019-05-29T01:14:49.985Z,99.90
2019-05-29T01:17:12.161Z,99.90
2019-05-29T01:19:39.207Z,99.90
2019-05-29T01:22:06.760Z,99.90
2019-05-29T01:24:34.318Z,99.90
2019-05-29T01:27:01.871Z,99.90
2019-05-29T01:29:29.428Z,99.90
2019-05-29T01:31:56.991Z,99.90
2019-05-29T01:34:24.543Z,99.90
2019-05-29T01:36:52.101Z,99.90
2019-05-29T01:39:19.656Z,99.90
2019-05-29T01:41:47.217Z,99.90
2019-05-29T01:44:15.332Z,99.90
2019-05-29T01:46:42.373Z,99.90
2019-05-29T01:49:09.948Z,99.90
2019-05-29T01:51:37.502Z,99.90
2019-05-29T01:54:05.059Z,99.90
2019-05-29T01:56:32.618Z,99.90
2019-05-29T01:59:01.123Z,99.90
2019-05-29T02:01:28.694Z,99.90
2019-05-29T02:03:56.262Z,99.90
2019-05-29T02:06:25.786Z,99.90
2019-05-29T02:08:55.055Z,99.90
2019-05-29T02:11:23.336Z,99.90
2019-05-29T02:13:50.223Z,99.90
2019-05-29T02:16:18.563Z,99.90
2019-05-29T02:18:46.115Z,99.90
2019-05-29T02:21:13.674Z,99.90
2019-05-29T02:23:41.232Z,99.90
2019-05-29T02:26:10.679Z,99.90
2019-05-29T02:28:38.238Z,99.90
2019-05-29T02:31:07.717Z,99.90
2019-05-29T02:33:35.278Z,99.90
2019-05-29T02:36:02.840Z,99.90
2019-05-29T02:38:31.164Z,99.90
2019-05-29T02:40:58.723Z,99.90
2019-05-29T02:43:27.705Z,99.90
2019-05-29T02:45:55.187Z,99.90
2019-05-29T02:48:23.179Z,99.90
2019-05-29T02:50:49.129Z,99.90
2019-05-29T02:53:16.798Z,99.90
2019-05-29T02:55:45.277Z,99.90
2019-05-29T02:58:12.833Z,99.90
2019-05-29T03:00:52.751Z,99.90
2019-05-29T03:03:21.567Z,99.90
2019-05-29T03:05:49.444Z,99.90
2019-05-29T03:08:17.008Z,99.90
2019-05-29T03:10:44.593Z,99.90
2019-05-29T03:13:12.155Z,99.90
2019-05-29T03:15:40.732Z,99.90
2019-05-29T03:18:08.291Z,99.90
2019-05-29T03:20:35.860Z,99.90
2019-05-29T03:23:03.425Z,99.90
2019-05-29T03:25:32.470Z,99.90
2019-05-29T03:27:58.588Z,99.90
2019-05-29T03:30:30.385Z,99.90
2019-05-29T03:32:54.668Z,99.90
2019-05-29T03:35:23.152Z,99.90
2019-05-29T03:37:50.709Z,99.90
2019-05-29T03:40:19.039Z,99.90
2019-05-29T03:42:46.599Z,99.90
2019-05-29T03:45:14.167Z,99.90
2019-05-29T03:47:43.668Z,99.90
2019-05-29T03:50:15.455Z,99.90
2019-05-29T03:52:39.161Z,99.90
2019-05-29T03:55:06.473Z,99.90
2019-05-29T03:57:35.701Z,99.90
2019-05-29T04:00:01.740Z,99.90
2019-05-29T04:02:31.065Z,99.90
2019-05-29T04:04:56.932Z,99.90
2019-05-29T04:07:24.505Z,99.90
2019-05-29T04:09:53.988Z,99.90
2019-05-29T04:12:21.550Z,99.90
2019-05-29T04:14:49.223Z,99.90
2019-05-29T04:17:16.786Z,99.90
2019-05-29T04:19:44.363Z,99.90
2019-05-29T04:22:11.924Z,99.90
2019-05-29T04:24:39.479Z,99.90
2019-05-29T04:27:07.036Z,99.90
2019-05-29T04:29:36.045Z,99.90
2019-05-29T04:32:02.214Z,99.90
2019-05-29T04:34:31.561Z,99.90
2019-05-29T04:36:57.376Z,99.90
2019-05-29T04:39:24.936Z,99.90
2019-05-29T04:41:53.444Z,99.90
2019-05-29T04:44:21.777Z,99.90
2019-05-29T04:46:49.340Z,99.90
2019-05-29T04:49:20.202Z,99.90
2019-05-29T04:51:46.406Z,99.90
2019-05-29T04:54:13.967Z,99.90
2019-05-29T04:56:41.529Z,99.90
2019-05-29T04:59:09.079Z,99.90
2019-05-29T05:01:37.132Z,99.90
2019-05-29T05:04:06.174Z,99.90
2019-05-29T05:06:33.742Z,99.90
2019-05-29T05:09:01.295Z,99.90
2019-05-29T05:11:29.627Z,99.90
2019-05-29T05:13:57.188Z,99.90
2019-05-29T05:16:24.751Z,99.90
2019-05-29T05:18:52.312Z,99.90
2019-05-29T05:21:19.885Z,99.90
2019-05-29T05:23:47.451Z,99.90
2019-05-29T05:26:15.008Z,99.90
2019-05-29T05:28:46.134Z,99.90
2019-05-29T05:31:13.255Z,99.90
2019-05-29T05:33:41.104Z,99.90
2019-05-29T05:36:08.436Z,99.90
2019-05-29T05:38:38.779Z,99.90
2019-05-29T05:41:05.533Z,99.90
2019-05-29T05:43:33.095Z,99.90
2019-05-29T05:46:00.650Z,99.90
2019-05-29T05:48:28.211Z,99.90
2019-05-29T05:50:55.782Z,99.90
2019-05-29T05:53:23.347Z,99.90
2019-05-29T05:55:50.927Z,99.90
2019-05-29T05:58:19.253Z,99.90
2019-05-29T06:00:46.822Z,99.90
2019-05-29T06:03:14.379Z,99.90
2019-05-29T06:05:42.306Z,99.90
2019-05-29T06:08:09.551Z,99.90
2019-05-29T06:10:38.136Z,99.90
2019-05-29T06:13:04.719Z,99.90
2019-05-29T06:15:32.432Z,99.90
2019-05-29T06:18:19.521Z,99.90
2019-05-29T06:20:27.516Z,99.90
2019-05-29T06:22:55.097Z,99.90
2019-05-29T06:25:22.665Z,99.90
2019-05-29T06:27:50.229Z,99.90
2019-05-29T06:30:17.796Z,99.90
2019-05-29T06:32:45.359Z,99.90
2019-05-29T06:35:12.926Z,99.90
2019-05-29T06:37:41.674Z,99.90
2019-05-29T06:40:10.050Z,99.90
2019-05-29T06:42:37.888Z,99.90
2019-05-29T06:45:06.451Z,99.90
2019-05-29T06:47:34.209Z,99.90
2019-05-29T06:50:01.441Z,99.90
2019-05-29T06:52:29.016Z,99.90
2019-05-29T06:54:56.581Z,99.90
2019-05-29T06:57:25.986Z,99.90
2019-05-29T06:59:51.784Z,99.90
2019-05-29T07:02:20.284Z,99.90
2019-05-29T07:04:47.851Z,99.90
2019-05-29T07:07:15.443Z,99.90
2019-05-29T07:09:43.123Z,99.90
2019-05-29T07:12:10.691Z,99.90
2019-05-29T07:14:38.256Z,99.90
2019-05-29T07:17:05.830Z,99.90
2019-05-29T07:19:47.707Z,99.90
2019-05-29T07:22:01.999Z,99.90
2019-05-29T07:24:29.583Z,99.90
2019-05-29T07:26:57.151Z,99.90
2019-05-29T07:29:24.727Z,99.90
2019-05-29T07:31:52.299Z,99.90
2019-05-29T07:34:19.874Z,99.90
2019-05-29T07:36:48.350Z,99.90
2019-05-29T07:39:15.832Z,99.90
2019-05-29T07:41:43.698Z,99.90
2019-05-29T07:44:11.012Z,99.90
2019-05-29T07:46:39.918Z,99.90
2019-05-29T07:49:06.200Z,99.90
2019-05-29T07:51:33.774Z,99.90
2019-05-29T07:54:01.343Z,99.90
2019-05-29T07:56:29.692Z,99.90
2019-05-29T07:59:03.334Z,99.90
2019-05-29T08:01:24.899Z,99.90
2019-05-29T08:03:53.415Z,99.90
2019-05-29T08:06:21.018Z,99.90
2019-05-29T08:08:49.537Z,99.90
2019-05-29T08:11:16.201Z,99.90
2019-05-29T08:13:45.644Z,99.90
2019-05-29T08:16:12.296Z,99.90
2019-05-29T08:18:41.691Z,99.90
2019-05-29T08:21:07.752Z,99.90
2019-05-29T08:23:35.317Z,99.90
2019-05-29T08:26:03.884Z,99.90
2019-05-29T08:28:31.449Z,99.90
2019-05-29T08:30:59.948Z,99.90
2019-05-29T08:33:27.517Z,99.90
2019-05-29T08:35:59.942Z,99.90
2019-05-29T08:38:23.667Z,99.90
2019-05-29T08:40:51.525Z,99.90
2019-05-29T08:43:19.611Z,99.90
2019-05-29T08:45:48.006Z,99.90
2019-05-29T08:48:16.743Z,99.90
2019-05-29T08:50:44.307Z,99.90
2019-05-29T08:53:11.869Z,99.90
2019-05-29T08:55:39.439Z,99.90
2019-05-29T08:58:07.004Z,99.90
2019-05-29T09:00:34.572Z,99.90
2019-05-29T09:03:02.155Z,99.90
2019-05-29T09:05:29.722Z,99.90
2019-05-29T09:07:57.288Z,99.90
2019-05-29T09:10:25.639Z,99.90
2019-05-29T09:13:03.615Z,99.90
2019-05-29T09:15:21.677Z,99.90
2019-05-29T09:17:48.455Z,99.90
2019-05-29T09:20:31.962Z,99.90
2019-05-29T09:22:45.587Z,99.90
2019-05-29T09:25:14.133Z,99.90
2019-05-29T09:27:40.763Z,99.90
2019-05-29T09:30:08.332Z,99.90
2019-05-29T09:32:49.666Z,99.90
2019-05-29T09:35:04.461Z,99.90
2019-05-29T09:37:32.023Z,99.90
2019-05-29T09:40:01.539Z,99.90
2019-05-29T09:42:30.783Z,99.90
2019-05-29T09:44:58.381Z,99.90
2019-05-29T09:47:26.372Z,99.90
2019-05-29T09:49:54.488Z,99.90
2019-05-29T09:52:23.982Z,99.90
2019-05-29T09:54:52.985Z,99.90
2019-05-29T09:57:19.168Z,99.90
2019-05-29T09:59:47.512Z,99.90
2019-05-29T10:02:15.091Z,99.90
2019-05-29T10:04:42.651Z,99.90
2019-05-29T10:07:10.226Z,99.90
2019-05-29T10:09:37.793Z,99.90
2019-05-29T10:12:06.915Z,99.90
2019-05-29T10:14:34.531Z,99.90
2019-05-29T10:17:11.079Z,99.90
2019-05-29T10:19:31.244Z,99.90
2019-05-29T10:22:00.690Z,99.90
2019-05-29T10:24:26.747Z,99.90
2019-05-29T10:26:55.552Z,99.90
2019-05-29T10:29:21.924Z,99.90
2019-05-29T10:31:53.461Z,99.90
2019-05-29T10:34:20.916Z,99.90
2019-05-29T10:36:51.731Z,99.90
2019-05-29T10:39:16.084Z,99.90
2019-05-29T10:41:44.635Z,99.90
2019-05-29T10:44:12.832Z,99.90
2019-05-29T10:46:38.873Z,99.90
2019-05-29T10:49:06.449Z,99.90
2019-05-29T10:51:34.936Z,99.90
2019-05-29T10:54:02.496Z,99.90
2019-05-29T10:56:30.062Z,99.90
2019-05-29T10:58:59.921Z,99.90
2019-05-29T11:01:25.240Z,99.90
2019-05-29T11:03:53.946Z,99.90
2019-05-29T11:06:21.172Z,99.90
2019-05-29T11:08:49.919Z,99.90
2019-05-29T11:11:16.356Z,99.90
2019-05-29T11:13:43.929Z,99.90
2019-05-29T11:16:13.389Z,99.90
2019-05-29T11:18:42.689Z,99.90
2019-05-29T11:21:10.265Z,99.90
2019-05-29T11:23:38.591Z,99.90
2019-05-29T11:26:07.136Z,99.90
2019-05-29T11:28:34.701Z,99.90
2019-05-29T11:31:06.053Z,99.90
2019-05-29T11:33:30.827Z,99.90
2019-05-29T11:36:10.674Z,99.90
2019-05-29T11:38:33.211Z,99.90
2019-05-29T11:41:24.515Z,99.90
2019-05-29T11:43:29.188Z,99.90
2019-05-29T11:45:57.382Z,99.90
2019-05-29T11:48:24.359Z,99.90
2019-05-29T11:50:52.144Z,99.90
2019-05-29T11:53:19.630Z,99.90
2019-05-29T11:55:48.161Z,99.90
2019-05-29T11:58:30.040Z,99.90
2019-05-29T12:00:43.331Z,99.90
2019-05-29T12:03:10.940Z,99.90
2019-05-29T12:05:38.504Z,99.90
2019-05-29T12:08:06.061Z,99.90
2019-05-29T12:10:33.640Z,99.90
2019-05-29T12:13:01.726Z,99.90
2019-05-29T12:15:29.578Z,99.90
2019-05-29T12:18:21.831Z,99.90
2019-05-29T12:20:28.563Z,99.90
2019-05-29T12:23:21.483Z,99.90
2019-05-29T12:25:22.175Z,99.90
2019-05-29T12:27:52.748Z,99.90
2019-05-29T12:30:19.311Z,99.90
2019-05-29T12:32:46.895Z,99.90
2019-05-29T12:35:14.462Z,99.90
2019-05-29T12:37:42.936Z,99.90
2019-05-29T12:40:10.505Z,99.90
2019-05-29T12:42:38.068Z,99.90
2019-05-29T12:45:07.247Z,99.90
2019-05-29T12:47:34.815Z,99.90
2019-05-29T12:50:02.740Z,99.90
2019-05-29T12:52:29.999Z,99.90
2019-05-29T12:54:58.001Z,99.90
2019-05-29T12:57:25.171Z,99.90
2019-05-29T12:59:55.858Z,99.90
2019-05-29T13:02:22.255Z,99.90
2019-05-29T13:05:07.201Z,99.90
2019-05-29T13:07:18.727Z,99.90
2019-05-29T13:09:46.332Z,99.90
2019-05-29T13:12:13.885Z,99.90
2019-05-29T13:14:41.467Z,99.90
2019-05-29T13:17:09.056Z,99.90
2019-05-29T13:19:36.654Z,99.90
2019-05-29T13:22:06.535Z,99.90
2019-05-29T13:24:33.659Z,99.90
2019-05-29T13:27:01.814Z,99.90
2019-05-29T13:29:29.603Z,99.90
2019-05-29T13:31:59.589Z,99.90
2019-05-29T13:34:25.696Z,99.90
2019-05-29T13:36:53.418Z,99.90
2019-05-29T13:39:20.993Z,99.90
2019-05-29T13:41:48.564Z,99.90
2019-05-29T13:44:16.132Z,99.90
2019-05-29T13:46:43.715Z,99.90
2019-05-29T13:49:11.272Z,99.90
2019-05-29T13:51:38.848Z,99.90
2019-05-29T13:54:11.787Z,99.90
2019-05-29T13:56:34.023Z,99.90
2019-05-29T13:59:02.047Z,99.90
2019-05-29T14:01:29.202Z,99.90
2019-05-29T14:03:58.057Z,99.90
2019-05-29T14:06:24.664Z,99.90
2019-05-29T14:08:53.166Z,99.90
2019-05-29T14:11:20.745Z,99.90
2019-05-29T14:13:49.085Z,99.90
2019-05-29T14:16:16.659Z,99.90
2019-05-29T14:18:44.253Z,99.90
2019-05-29T14:21:13.342Z,99.90
2019-05-29T14:23:40.043Z,99.90
2019-05-29T14:26:07.040Z,99.90
2019-05-29T14:28:34.607Z,99.90
2019-05-29T14:31:03.886Z,99.90
2019-05-29T14:33:31.328Z,99.90
2019-05-29T14:35:58.903Z,99.90
2019-05-29T14:38:26.480Z,97.10
2019-05-29T14:40:55.987Z,92.60
2019-05-29T14:43:23.550Z,91.50
2019-05-29T14:45:51.124Z,93.80
2019-05-29T14:48:18.743Z,95.00
2019-05-29T14:50:46.346Z,95.50
2019-05-29T14:53:13.923Z,94.90
2019-05-29T14:55:41.491Z,92.80
2019-05-29T14:58:09.801Z,91.00
2019-05-29T15:00:37.160Z,88.90
2019-05-29T15:03:05.285Z,86.80
2019-05-29T15:05:32.352Z,81.50
2019-05-29T15:07:59.937Z,80.70
2019-05-29T15:10:27.955Z,78.40
2019-05-29T15:12:58.072Z,78.10
2019-05-29T15:15:22.743Z,74.90
2019-05-29T15:17:50.340Z,76.20
2019-05-29T15:20:19.815Z,79.80
2019-05-29T15:22:47.384Z,84.30
2019-05-29T15:25:23.448Z,85.60
2019-05-29T15:27:42.575Z,85.60
2019-05-29T15:30:11.353Z,82.90
2019-05-29T15:32:38.527Z,87.40
2019-05-29T15:35:13.777Z,87.50
2019-05-29T15:37:35.689Z,85.60
2019-05-29T15:40:06.631Z,84.50
2019-05-29T15:42:33.635Z,84.50
2019-05-29T15:45:01.205Z,85.70
2019-05-29T15:47:28.771Z,84.80
2019-05-29T15:49:58.254Z,80.10
2019-05-29T15:52:25.816Z,83.40
2019-05-29T15:54:53.375Z,81.90
2019-05-29T15:57:20.956Z,81.10
2019-05-29T15:59:48.523Z,81.70
2019-05-29T16:02:16.089Z,83.40
2019-05-29T16:04:43.842Z,84.50
2019-05-29T16:07:11.921Z,83.30
2019-05-29T16:09:39.024Z,86.50
2019-05-29T16:12:06.585Z,90.30
2019-05-29T16:14:34.149Z,91.00
2019-05-29T16:17:03.704Z,88.50
2019-05-29T16:19:32.175Z,85.80
2019-05-29T16:22:00.513Z,82.50
2019-05-29T16:24:28.073Z,82.30
2019-05-29T16:27:07.937Z,83.70
2019-05-29T16:29:23.251Z,87.10
2019-05-29T16:31:50.920Z,87.40
2019-05-29T16:34:20.031Z,85.90
2019-05-29T16:36:46.139Z,85.40
2019-05-29T16:39:13.703Z,89.20
2019-05-29T16:41:41.271Z,90.40
2019-05-29T16:44:08.827Z,91.50
2019-05-29T16:46:36.394Z,92.50
2019-05-29T16:49:03.988Z,93.40
2019-05-29T16:51:31.554Z,93.50
2019-05-29T16:53:59.884Z,94.50
2019-05-29T16:56:27.443Z,94.50
2019-05-29T16:58:55.009Z,94.50
2019-05-29T17:01:23.959Z,94.60
2019-05-29T17:03:50.178Z,95.50
2019-05-29T17:06:17.805Z,95.80
2019-05-29T17:08:45.336Z,96.40
2019-05-29T17:11:14.401Z,96.10
2019-05-29T17:13:40.502Z,94.40
2019-05-29T17:16:08.179Z,95.00
2019-05-29T17:18:36.667Z,95.00
2019-05-29T17:21:04.312Z,96.00
2019-05-29T17:23:31.875Z,97.10
2019-05-29T17:26:10.287Z,96.50
2019-05-29T17:28:28.419Z,96.80
2019-05-29T17:30:54.652Z,96.70
2019-05-29T17:33:23.111Z,97.40
2019-05-29T17:35:49.836Z,98.40
2019-05-29T17:38:17.420Z,99.30
2019-05-29T17:40:44.991Z,99.90
2019-05-29T17:43:12.554Z,99.90
2019-05-29T17:45:40.116Z,99.90
2019-05-29T17:48:07.673Z,99.90
2019-05-29T17:50:35.230Z,99.90
2019-05-29T17:53:02.783Z,99.90
2019-05-29T17:55:30.347Z,99.90
2019-05-29T17:57:57.947Z,99.90
2019-05-29T18:00:26.687Z,99.90
2019-05-29T18:02:55.044Z,99.90
2019-05-29T18:05:22.738Z,99.90
2019-05-29T18:07:50.974Z,99.90
2019-05-29T18:10:19.320Z,99.90
2019-05-29T18:12:46.232Z,99.90
2019-05-29T18:15:13.796Z,99.90
2019-05-29T18:17:44.257Z,99.90
2019-05-29T18:20:09.747Z,99.90
2019-05-29T18:22:38.080Z,99.90
2019-05-29T18:25:05.648Z,99.90
2019-05-29T18:27:33.211Z,99.90
2019-05-29T18:30:00.793Z,99.90
2019-05-29T18:32:29.145Z,99.90
2019-05-29T18:34:57.669Z,99.90
2019-05-29T18:37:26.237Z,99.90
2019-05-29T18:39:52.841Z,99.90
2019-05-29T18:42:20.446Z,99.90
2019-05-29T18:44:48.015Z,99.90
2019-05-29T18:47:15.573Z,99.90
2019-05-29T18:49:43.130Z,99.90
2019-05-29T18:52:10.785Z,99.90
2019-05-29T18:54:38.343Z,99.90
2019-05-29T18:57:15.300Z,99.90
2019-05-29T18:59:33.531Z,99.90
2019-05-29T19:02:01.104Z,99.90
2019-05-29T19:04:29.885Z,99.90
2019-05-29T19:06:56.284Z,99.90
2019-05-29T19:09:25.763Z,99.90
2019-05-29T19:11:53.330Z,99.90
2019-05-29T19:14:24.046Z,99.90
2019-05-29T19:16:50.618Z,99.90
2019-05-29T19:19:18.183Z,99.90
2019-05-29T19:21:46.517Z,99.90
2019-05-29T19:24:14.077Z,99.90
2019-05-29T19:26:41.645Z,99.90
2019-05-29T19:29:09.203Z,99.90
2019-05-29T19:31:36.772Z,99.90
2019-05-29T19:34:06.147Z,99.90
2019-05-29T19:36:33.908Z,99.90
2019-05-29T19:39:01.323Z,99.90
2019-05-29T19:41:29.988Z,99.90
2019-05-29T19:43:56.488Z,99.90
2019-05-29T19:46:24.488Z,99.90
2019-05-29T19:48:52.583Z,99.90
2019-05-29T19:51:20.491Z,99.90
2019-05-29T19:53:48.973Z,99.90
2019-05-29T19:56:16.540Z,99.90
2019-05-29T19:58:44.099Z,99.90
2019-05-29T20:01:12.592Z,99.90
2019-05-29T20:03:40.914Z,99.90
2019-05-29T20:06:08.490Z,99.90
2019-05-29T20:08:39.077Z,99.90
2019-05-29T20:11:03.654Z,99.90
2019-05-29T20:13:31.988Z,99.90
2019-05-29T20:15:59.559Z,99.90
2019-05-29T20:18:28.012Z,99.90
2019-05-29T20:20:54.720Z,99.90
2019-05-29T20:23:22.395Z,99.90
2019-05-29T20:25:49.952Z,99.90
2019-05-29T20:28:19.431Z,99.90
2019-05-29T20:30:46.996Z,99.90
2019-05-29T20:33:14.668Z,99.90
2019-05-29T20:35:43.187Z,99.90
2019-05-29T20:38:09.853Z,99.90
2019-05-29T20:40:37.417Z,99.90
2019-05-29T20:43:04.975Z,99.90
2019-05-29T20:45:33.363Z,99.90
2019-05-29T20:48:00.154Z,99.90
2019-05-29T20:50:27.716Z,99.90
2019-05-29T20:52:55.275Z,99.90
2019-05-29T20:55:22.844Z,99.90
2019-05-29T20:57:50.411Z,99.90
2019-05-29T21:00:17.995Z,99.90
2019-05-29T21:02:45.556Z,99.90
2019-05-29T21:05:13.119Z,99.90
2019-05-29T21:07:42.966Z,99.90
2019-05-29T21:10:10.225Z,99.90
2019-05-29T21:12:41.918Z,99.90
2019-05-29T21:15:05.447Z,99.90
2019-05-29T21:17:33.752Z,99.90
2019-05-29T21:20:00.898Z,99.90
2019-05-29T21:22:28.455Z,99.90
2019-05-29T21:25:04.253Z,99.90
2019-05-29T21:27:24.803Z,99.90
2019-05-29T21:29:52.359Z,99.90
2019-05-29T21:32:19.918Z,99.90
2019-05-29T21:34:47.514Z,99.90
2019-05-29T21:37:16.034Z,99.90
2019-05-29T21:39:44.540Z,99.90
2019-05-29T21:42:11.208Z,99.90
2019-05-29T21:44:38.764Z,99.90
2019-05-29T21:47:06.324Z,99.90
2019-05-29T21:49:33.879Z,99.90
2019-05-29T21:52:01.442Z,99.90
2019-05-29T21:54:30.613Z,99.90
2019-05-29T21:56:59.215Z,99.90
2019-05-29T21:59:26.798Z,99.90
2019-05-29T22:01:54.364Z,99.90
2019-05-29T22:04:21.926Z,99.90
2019-05-29T22:06:50.260Z,99.90
2019-05-29T22:09:17.820Z,99.90
2019-05-29T22:11:45.379Z,99.90
2019-05-29T22:14:12.935Z,99.90
2019-05-29T22:16:40.507Z,99.90
2019-05-29T22:19:08.072Z,99.90
2019-05-29T22:21:35.632Z,99.90
2019-05-29T22:24:05.102Z,99.90
2019-05-29T22:26:34.569Z,99.90
2019-05-29T22:29:17.370Z,99.90
2019-05-29T22:31:29.740Z,99.90
2019-05-29T22:33:57.496Z,99.90
2019-05-29T22:36:24.916Z,99.90
2019-05-29T22:38:55.369Z,99.90
2019-05-29T22:41:21.999Z,99.90
2019-05-29T22:43:49.556Z,99.90
2019-05-29T22:46:17.111Z,99.90
2019-05-29T22:48:44.664Z,99.90
2019-05-29T22:51:12.235Z,99.90
2019-05-29T22:53:39.866Z,99.90
2019-05-29T22:56:07.428Z,99.90
2019-05-29T22:58:34.996Z,99.90
2019-05-29T23:01:02.558Z,99.90
2019-05-29T23:03:30.115Z,99.90
2019-05-29T23:05:58.239Z,99.90
2019-05-29T23:08:25.371Z,99.90
2019-05-29T23:10:54.085Z,99.90
2019-05-29T23:13:20.536Z,99.90
2019-05-29T23:15:48.095Z,99.90
2019-05-29T23:18:15.655Z,99.90
2019-05-29T23:20:43.216Z,99.90
2019-05-29T23:23:10.776Z,99.90
2019-05-29T23:25:38.338Z,99.90
2019-05-29T23:28:05.929Z,99.90
2019-05-29T23:30:34.249Z,99.90
2019-05-29T23:33:03.240Z,99.90
2019-05-29T23:35:30.355Z,99.90
2019-05-29T23:37:59.188Z,99.90
2019-05-29T23:40:28.184Z,99.90
2019-05-29T23:42:55.741Z,99.90
2019-05-29T23:45:23.299Z,99.90
2019-05-29T23:47:50.848Z,99.90
2019-05-29T23:50:18.403Z,99.90
2019-05-29T23:52:46.144Z,99.90
2019-05-29T23:55:13.716Z,99.90
2019-05-29T23:57:43.184Z,99.90
